createdAt,value
2022-12-05T00:01:42.696Z,-9.63
2022-12-05T00:04:15.231Z,-9.62
2022-12-05T00:06:44.252Z,-9.60
2022-12-05T00:09:13.006Z,-9.62
2022-12-05T00:11:42.728Z,-9.64
2022-12-05T00:14:11.854Z,-9.70
2022-12-05T00:16:40.379Z,-9.68
2022-12-05T00:19:09.230Z,-9.71
2022-12-05T00:21:37.666Z,-9.68
2022-12-05T00:24:56.201Z,-9.69
2022-12-05T00:27:23.204Z,-9.72
2022-12-05T00:29:50.268Z,-9.74
2022-12-05T00:32:17.327Z,-9.74
2022-12-05T00:34:44.465Z,-9.79
2022-12-05T00:37:11.467Z,-9.76
2022-12-05T00:39:41.444Z,-9.76
2022-12-05T00:42:08.430Z,-9.79
2022-12-05T00:44:35.389Z,-9.78
2022-12-05T00:47:02.377Z,-9.80
2022-12-05T00:49:29.351Z,-9.89
2022-12-05T00:52:16.345Z,-9.84
2022-12-05T00:54:43.569Z,-9.85
2022-12-05T00:57:10.498Z,-9.94
2022-12-05T00:59:37.454Z,-9.95
2022-12-05T01:02:04.433Z,-9.96
2022-12-05T01:04:31.467Z,-9.96
2022-12-05T01:06:58.919Z,-9.97
2022-12-05T01:09:26.829Z,-10.01
2022-12-05T01:11:54.040Z,-9.97
2022-12-05T01:14:23.291Z,-10.01
2022-12-05T01:16:53.922Z,-10.06
2022-12-05T01:19:23.823Z,-10.06
2022-12-05T01:21:51.640Z,-10.09
2022-12-05T01:24:20.253Z,-10.05
2022-12-05T01:26:47.831Z,-10.01
2022-12-05T01:29:18.311Z,-10.04
2022-12-05T01:31:45.870Z,-10.04
2022-12-05T01:34:15.923Z,-10.04
2022-12-05T01:36:43.524Z,-10.07
2022-12-05T01:39:12.049Z,-10.03
2022-12-05T01:41:45.683Z,-10.09
2022-12-05T01:44:12.777Z,-10.06
2022-12-05T01:46:51.001Z,-10.09
2022-12-05T01:49:28.862Z,-10.12
2022-12-05T01:52:01.597Z,-10.12
2022-12-05T01:54:30.236Z,-10.14
2022-12-05T01:57:02.150Z,-10.11
2022-12-05T01:59:34.525Z,-10.11
2022-12-05T02:02:02.240Z,-10.08
2022-12-05T02:04:29.275Z,-10.10
2022-12-05T02:06:58.303Z,-10.12
2022-12-05T02:09:25.197Z,-10.14
2022-12-05T02:11:57.424Z,-10.09
2022-12-05T02:14:27.256Z,-10.09
2022-12-05T02:17:03.359Z,-10.07
2022-12-05T02:19:51.525Z,-10.08
2022-12-05T02:22:41.392Z,-10.06
2022-12-05T02:26:18.801Z,-10.07
2022-12-05T02:29:11.360Z,-10.11
2022-12-05T02:31:57.556Z,-10.14
2022-12-05T02:34:24.567Z,-10.14
2022-12-05T02:37:02.100Z,-10.17
2022-12-05T02:39:54.859Z,-10.16
2022-12-05T02:42:51.464Z,-10.15
2022-12-05T02:45:21.535Z,-10.18
2022-12-05T02:47:52.427Z,-10.15
2022-12-05T02:50:25.153Z,-10.18
2022-12-05T02:52:56.790Z,-10.18
2022-12-05T02:55:27.052Z,-10.21
2022-12-05T02:57:58.633Z,-10.23
2022-12-05T03:00:25.894Z,-10.24
2022-12-05T03:02:58.595Z,-10.23
2022-12-05T03:05:51.581Z,-10.24
2022-12-05T03:08:23.626Z,-10.31
2022-12-05T03:10:53.443Z,-10.30
2022-12-05T03:13:30.208Z,-10.33
2022-12-05T03:16:03.157Z,-10.31
2022-12-05T03:18:35.312Z,-10.33
2022-12-05T03:21:22.586Z,-10.34
2022-12-05T03:24:01.622Z,-10.37
2022-12-05T03:26:34.627Z,-10.38
2022-12-05T03:29:52.968Z,-10.40
2022-12-05T03:32:28.943Z,-10.42
2022-12-05T03:34:56.285Z,-10.44
2022-12-05T03:37:58.479Z,-10.44
2022-12-05T03:40:40.639Z,-10.46
2022-12-05T03:43:23.668Z,-10.50
2022-12-05T03:46:01.309Z,-10.51
2022-12-05T03:48:36.045Z,-10.54
2022-12-05T03:51:07.321Z,-10.52
2022-12-05T03:54:14.123Z,-10.53
2022-12-05T03:56:46.476Z,-10.51
2022-12-05T03:59:36.022Z,-10.54
2022-12-05T04:02:11.265Z,-10.58
2022-12-05T04:04:47.752Z,-10.61
2022-12-05T04:07:16.962Z,-10.63
2022-12-05T04:09:59.371Z,-10.66
2022-12-05T04:12:30.299Z,-10.62
2022-12-05T04:15:06.511Z,-10.64
2022-12-05T04:18:09.657Z,-10.64
2022-12-05T04:21:00.128Z,-10.64
2022-12-05T04:23:28.428Z,-10.67
2022-12-05T04:26:17.813Z,-10.71
2022-12-05T04:29:11.262Z,-10.76
2022-12-05T04:31:44.173Z,-10.74
2022-12-05T04:34:14.505Z,-10.72
2022-12-05T04:36:57.776Z,-10.75
2022-12-05T04:39:37.729Z,-10.79
2022-12-05T04:42:08.957Z,-10.69
2022-12-05T04:44:46.642Z,-10.68
2022-12-05T04:47:18.753Z,-10.74
2022-12-05T04:49:52.204Z,-10.69
2022-12-05T04:52:22.260Z,-10.69
2022-12-05T04:54:49.096Z,-10.70
2022-12-05T04:57:50.585Z,-10.71
2022-12-05T05:00:17.919Z,-10.71
2022-12-05T05:02:56.303Z,-10.74
2022-12-05T05:05:23.714Z,-10.74
2022-12-05T05:07:53.914Z,-10.74
2022-12-05T05:10:33.436Z,-10.76
2022-12-05T05:13:05.453Z,-10.73
2022-12-05T05:15:32.502Z,-10.73
2022-12-05T05:17:59.387Z,-10.74
2022-12-05T05:20:27.566Z,-10.76
2022-12-05T05:22:56.654Z,-10.75
2022-12-05T05:25:24.983Z,-10.75
2022-12-05T05:27:53.827Z,-10.72
2022-12-05T05:30:23.292Z,-10.70
2022-12-05T05:32:50.468Z,-10.68
2022-12-05T05:35:17.976Z,-10.65
2022-12-05T05:37:46.130Z,-10.63
2022-12-05T05:40:21.113Z,-10.63
2022-12-05T05:42:50.927Z,-10.58
2022-12-05T05:45:18.316Z,-10.55
2022-12-05T05:47:50.006Z,-10.55
2022-12-05T05:50:21.502Z,-10.49
2022-12-05T05:52:49.895Z,-10.47
2022-12-05T05:55:17.087Z,-10.42
2022-12-05T05:57:44.236Z,-10.39
2022-12-05T06:00:12.705Z,-10.33
2022-12-05T06:02:45.073Z,-10.33
2022-12-05T06:05:12.234Z,-10.29
2022-12-05T06:07:39.352Z,-10.28
2022-12-05T06:10:16.257Z,-10.26
2022-12-05T06:12:43.235Z,-10.23
2022-12-05T06:15:10.873Z,-10.23
2022-12-05T06:17:40.361Z,-10.19
2022-12-05T06:20:08.596Z,-10.16
2022-12-05T06:22:35.676Z,-10.13
2022-12-05T06:25:02.746Z,-10.09
2022-12-05T06:27:33.798Z,-10.04
2022-12-05T06:30:01.313Z,-9.98
2022-12-05T06:32:33.735Z,-9.93
2022-12-05T06:35:01.004Z,-9.89
2022-12-05T06:37:28.486Z,-9.86
2022-12-05T06:39:55.544Z,-9.85
2022-12-05T06:42:22.845Z,-9.82
2022-12-05T06:44:49.816Z,-9.80
2022-12-05T06:47:19.976Z,-9.75
2022-12-05T06:49:47.101Z,-9.71
2022-12-05T06:52:14.092Z,-9.67
2022-12-05T06:54:47.058Z,-9.64
2022-12-05T06:57:19.086Z,-9.59
2022-12-05T06:59:46.080Z,-9.55
2022-12-05T07:02:14.006Z,-9.53
2022-12-05T07:04:41.304Z,-9.55
2022-12-05T07:07:09.474Z,-9.58
2022-12-05T07:09:54.548Z,-9.63
2022-12-05T07:12:24.043Z,-9.67
2022-12-05T07:14:51.490Z,-9.65
2022-12-05T07:17:19.996Z,-9.60
2022-12-05T07:19:51.175Z,-9.60
2022-12-05T07:22:19.254Z,-9.51
2022-12-05T07:24:49.643Z,-9.45
2022-12-05T07:27:20.551Z,-9.40
2022-12-05T07:29:51.506Z,-9.36
2022-12-05T07:32:18.634Z,-9.33
2022-12-05T07:34:46.184Z,-9.30
2022-12-05T07:37:14.720Z,-9.27
2022-12-05T07:39:41.937Z,-9.20
2022-12-05T07:42:09.105Z,-9.17
2022-12-05T07:44:36.440Z,-9.11
2022-12-05T07:47:03.784Z,-9.09
2022-12-05T07:49:35.720Z,-9.12
2022-12-05T07:52:02.839Z,-9.02
2022-12-05T07:54:33.220Z,-8.95
2022-12-05T07:57:00.299Z,-8.90
2022-12-05T07:59:27.383Z,-8.85
2022-12-05T08:01:57.206Z,-8.78
2022-12-05T08:04:24.335Z,-8.84
2022-12-05T08:06:51.295Z,-8.70
2022-12-05T08:09:18.971Z,-8.77
2022-12-05T08:11:51.070Z,-8.91
2022-12-05T08:14:19.688Z,-8.83
2022-12-05T08:16:46.738Z,-8.82
2022-12-05T08:19:14.252Z,-8.85
2022-12-05T08:21:44.439Z,-8.84
2022-12-05T08:24:11.557Z,-8.77
2022-12-05T08:26:39.509Z,-8.69
2022-12-05T08:29:11.443Z,-8.61
2022-12-05T08:31:47.619Z,-8.50
2022-12-05T08:34:16.216Z,-8.45
2022-12-05T08:36:43.568Z,-8.40
2022-12-05T08:39:15.183Z,-8.29
2022-12-05T08:41:46.514Z,-8.22
2022-12-05T08:44:18.748Z,-8.10
2022-12-05T08:46:49.394Z,-8.00
2022-12-05T08:49:17.442Z,-7.89
2022-12-05T08:51:49.263Z,-7.78
2022-12-05T08:54:16.623Z,-7.77
2022-12-05T08:56:43.953Z,-7.57
2022-12-05T08:59:11.421Z,-7.46
2022-12-05T09:01:39.469Z,-7.38
2022-12-05T09:04:07.814Z,-7.29
2022-12-05T09:06:39.419Z,-7.24
2022-12-05T09:09:11.483Z,-7.21
2022-12-05T09:11:49.075Z,-7.16
2022-12-05T09:14:16.995Z,-7.11
2022-12-05T09:16:47.957Z,-7.15
2022-12-05T09:19:25.011Z,-7.13
2022-12-05T09:21:52.145Z,-7.22
2022-12-05T09:24:20.046Z,-7.25
2022-12-05T09:26:49.359Z,-7.30
2022-12-05T09:29:18.041Z,-7.29
2022-12-05T09:31:47.963Z,-7.27
2022-12-05T09:34:15.473Z,-7.19
2022-12-05T09:36:43.132Z,-7.09
2022-12-05T09:39:13.247Z,-7.06
2022-12-05T09:42:08.159Z,-6.99
2022-12-05T09:44:53.619Z,-6.91
2022-12-05T09:47:34.993Z,-6.93
2022-12-05T09:51:01.730Z,-6.92
2022-12-05T09:53:49.542Z,-6.91
2022-12-05T09:56:31.094Z,-7.06
2022-12-05T09:59:00.994Z,-7.05
2022-12-05T10:01:42.589Z,-6.91
2022-12-05T10:04:12.847Z,-6.78
2022-12-05T10:07:07.443Z,-6.73
2022-12-05T10:09:52.783Z,-6.72
2022-12-05T10:12:44.311Z,-6.66
2022-12-05T10:15:31.098Z,-6.65
2022-12-05T10:18:35.197Z,-6.65
2022-12-05T10:21:51.272Z,-6.63
2022-12-05T10:24:33.066Z,-6.63
2022-12-05T10:27:06.530Z,-6.61
2022-12-05T10:29:33.599Z,-6.60
2022-12-05T10:32:52.372Z,-6.57
2022-12-05T10:35:27.821Z,-6.61
2022-12-05T10:38:04.088Z,-6.61
2022-12-05T10:40:38.470Z,-6.67
2022-12-05T10:43:12.282Z,-6.68
2022-12-05T10:45:48.412Z,-6.68
2022-12-05T10:48:18.348Z,-6.64
2022-12-05T10:50:48.729Z,-6.58
2022-12-05T10:53:21.268Z,-6.62
2022-12-05T10:56:28.150Z,-6.63
2022-12-05T10:58:38.296Z,-6.62
2022-12-05T11:01:14.330Z,-6.70
2022-12-05T11:03:43.642Z,-6.63
2022-12-05T11:06:19.286Z,-6.61
2022-12-05T11:09:09.764Z,-6.64
2022-12-05T11:11:37.213Z,-6.68
2022-12-05T11:14:07.311Z,-6.70
2022-12-05T11:16:39.483Z,-6.73
2022-12-05T11:19:22.010Z,-6.76
2022-12-05T11:21:50.303Z,-6.79
2022-12-05T11:24:29.198Z,-6.82
2022-12-05T11:27:20.132Z,-6.87
2022-12-05T11:30:00.959Z,-6.90
2022-12-05T11:32:34.186Z,-6.94
2022-12-05T11:35:13.775Z,-7.00
2022-12-05T11:37:47.883Z,-7.07
2022-12-05T11:40:30.080Z,-7.14
2022-12-05T11:43:25.351Z,-7.12
2022-12-05T11:45:57.607Z,-7.17
2022-12-05T11:48:43.985Z,-7.19
2022-12-05T11:51:31.206Z,-7.23
2022-12-05T11:57:51.852Z,-7.32
2022-12-05T12:00:25.961Z,-7.36
2022-12-05T12:03:32.586Z,-7.41
2022-12-05T12:06:24.846Z,-7.42
2022-12-05T12:09:06.887Z,-7.42
2022-12-05T12:11:43.335Z,-7.44
2022-12-05T12:14:29.025Z,-7.45
2022-12-05T12:17:02.049Z,-7.45
2022-12-05T12:19:37.442Z,-7.62
2022-12-05T12:22:24.645Z,-7.46
2022-12-05T12:25:25.482Z,-7.48
2022-12-05T12:28:29.419Z,-7.52
2022-12-05T12:31:30.490Z,-7.58
2022-12-05T12:34:28.037Z,-7.67
2022-12-05T12:37:22.679Z,-7.66
2022-12-05T12:40:01.443Z,-7.72
2022-12-05T12:42:38.458Z,-7.74
2022-12-05T12:45:26.576Z,-7.75
2022-12-05T12:47:56.506Z,-7.78
2022-12-05T12:50:43.436Z,-7.85
2022-12-05T12:53:16.798Z,-7.89
2022-12-05T12:55:52.751Z,-7.89
2022-12-05T12:58:34.665Z,-7.92
2022-12-05T13:01:09.093Z,-7.95
2022-12-05T13:03:51.501Z,-7.96
2022-12-05T13:07:11.889Z,-7.96
2022-12-05T13:10:02.929Z,-7.99
2022-12-05T13:12:38.571Z,-8.04
2022-12-05T13:15:14.013Z,-8.06
2022-12-05T13:17:44.107Z,-8.03
2022-12-05T13:20:40.570Z,-8.04
2022-12-05T13:23:12.302Z,-8.04
2022-12-05T13:25:40.810Z,-8.07
2022-12-05T13:28:42.260Z,-8.05
2022-12-05T13:31:14.311Z,-8.06
2022-12-05T13:33:48.249Z,-8.10
2022-12-05T13:36:39.464Z,-8.05
2022-12-05T13:39:41.267Z,-8.05
2022-12-05T13:42:24.889Z,-8.05
2022-12-05T13:45:08.754Z,-8.03
2022-12-05T13:48:00.344Z,-8.14
2022-12-05T13:50:33.606Z,-8.07
2022-12-05T13:53:10.159Z,-8.13
2022-12-05T13:55:53.924Z,-8.16
2022-12-05T13:58:21.349Z,-8.12
2022-12-05T14:00:53.021Z,-8.12
2022-12-05T14:03:25.257Z,-8.13
2022-12-05T14:05:57.056Z,-8.11
2022-12-05T14:08:37.003Z,-8.08
2022-12-05T14:11:05.841Z,-8.06
2022-12-05T14:13:33.904Z,-8.07
2022-12-05T14:16:30.572Z,-8.07
2022-12-05T14:19:34.714Z,-7.98
2022-12-05T14:22:24.196Z,-7.95
2022-12-05T14:25:04.439Z,-7.91
2022-12-05T14:27:41.517Z,-7.91
2022-12-05T14:30:34.810Z,-7.91
2022-12-05T14:33:03.351Z,-7.96
2022-12-05T14:35:43.865Z,-7.94
2022-12-05T14:38:34.500Z,-7.87
2022-12-05T14:41:26.587Z,-7.83
2022-12-05T14:43:56.785Z,-7.84
2022-12-05T14:46:32.449Z,-7.82
2022-12-05T14:49:48.465Z,-7.84
2022-12-05T14:52:20.781Z,-7.87
2022-12-05T14:54:53.026Z,-7.87
2022-12-05T14:57:21.516Z,-7.89
2022-12-05T14:59:57.174Z,-7.89
2022-12-05T15:02:29.850Z,-7.90
2022-12-05T15:05:31.877Z,-7.90
2022-12-05T15:08:05.080Z,-7.91
2022-12-05T15:10:41.500Z,-7.89
2022-12-05T15:13:15.018Z,-7.88
2022-12-05T15:16:08.537Z,-7.88
2022-12-05T15:18:40.299Z,-7.88
2022-12-05T15:21:25.769Z,-7.87
2022-12-05T15:23:55.540Z,-7.89
2022-12-05T15:26:46.139Z,-7.91
2022-12-05T15:29:20.993Z,-7.89
2022-12-05T15:31:56.246Z,-7.89
2022-12-05T15:34:45.711Z,-7.92
2022-12-05T15:37:18.577Z,-7.94
2022-12-05T15:40:14.356Z,-7.95
2022-12-05T15:42:44.843Z,-7.98
2022-12-05T15:45:14.806Z,-7.98
2022-12-05T15:47:46.638Z,-7.99
2022-12-05T15:50:39.285Z,-7.99
2022-12-05T15:53:27.434Z,-7.95
2022-12-05T15:56:09.240Z,-7.95
2022-12-05T15:58:42.786Z,-7.96
2022-12-05T16:01:16.759Z,-7.99
2022-12-05T16:03:49.746Z,-7.99
2022-12-05T16:06:43.570Z,-8.02
2022-12-05T16:09:17.433Z,-8.03
2022-12-05T16:11:53.281Z,-8.07
2022-12-05T16:14:51.319Z,-8.10
2022-12-05T16:17:15.974Z,-8.13
2022-12-05T16:19:43.749Z,-8.13
2022-12-05T16:22:16.665Z,-8.13
2022-12-05T16:24:45.852Z,-8.13
2022-12-05T16:27:16.139Z,-8.15
2022-12-05T16:29:45.240Z,-8.18
2022-12-05T16:32:23.626Z,-8.14
2022-12-05T16:34:51.625Z,-8.13
2022-12-05T16:37:37.238Z,-8.13
2022-12-05T16:40:04.547Z,-8.17
2022-12-05T16:42:31.662Z,-8.18
2022-12-05T16:45:03.405Z,-8.17
2022-12-05T16:47:42.161Z,-8.19
2022-12-05T16:50:26.121Z,-8.22
2022-12-05T16:53:04.441Z,-8.21
2022-12-05T16:55:38.532Z,-8.21
2022-12-05T16:58:06.314Z,-8.26
2022-12-05T17:00:33.769Z,-8.22
2022-12-05T17:03:25.926Z,-8.26
2022-12-05T17:05:48.229Z,-8.27
2022-12-05T17:08:15.368Z,-8.25
2022-12-05T17:10:43.731Z,-8.24
2022-12-05T17:13:15.554Z,-8.35
2022-12-05T17:15:45.729Z,-8.21
2022-12-05T17:18:26.529Z,-8.18
2022-12-05T17:20:57.389Z,-8.16
2022-12-05T17:23:27.987Z,-8.22
2022-12-05T17:25:57.161Z,-8.17
2022-12-05T17:28:25.318Z,-8.16
2022-12-05T17:30:52.669Z,-8.12
2022-12-05T17:33:22.470Z,-8.12
2022-12-05T17:35:51.145Z,-8.13
2022-12-05T17:38:19.531Z,-8.14
2022-12-05T17:40:47.222Z,-8.16
2022-12-05T17:43:19.922Z,-8.14
2022-12-05T17:45:54.786Z,-8.10
2022-12-05T17:48:22.035Z,-8.06
2022-12-05T17:50:49.936Z,-8.02
2022-12-05T17:53:19.607Z,-8.03
2022-12-05T17:55:48.917Z,-8.01
2022-12-05T17:58:17.394Z,-8.05
2022-12-05T18:00:45.653Z,-8.01
2022-12-05T18:03:15.376Z,-7.99
2022-12-05T18:05:42.573Z,-7.98
2022-12-05T18:08:10.032Z,-7.99
2022-12-05T18:10:37.338Z,-7.96
2022-12-05T18:13:11.091Z,-7.93
2022-12-05T18:15:43.069Z,-7.90
2022-12-05T18:18:16.102Z,-7.95
2022-12-05T18:20:43.931Z,-7.95
2022-12-05T18:23:11.194Z,-7.95
2022-12-05T18:25:40.241Z,-7.98
2022-12-05T18:28:07.745Z,-8.00
2022-12-05T18:30:34.759Z,-8.02
2022-12-05T18:33:01.826Z,-8.06
2022-12-05T18:35:41.138Z,-8.09
2022-12-05T18:38:11.905Z,-8.12
2022-12-05T18:40:39.300Z,-8.15
2022-12-05T18:43:06.326Z,-8.19
2022-12-05T18:45:33.331Z,-8.24
2022-12-05T18:48:23.322Z,-8.27
2022-12-05T18:50:47.329Z,-8.29
2022-12-05T18:53:14.401Z,-8.30
2022-12-05T18:58:29.290Z,-8.27
2022-12-05T19:01:13.463Z,-8.25
2022-12-05T19:03:41.184Z,-8.26
2022-12-05T19:06:17.228Z,-8.27
2022-12-05T19:08:45.448Z,-8.28
2022-12-05T19:11:15.726Z,-8.40
2022-12-05T19:13:43.949Z,-8.37
2022-12-05T19:16:19.401Z,-8.47
2022-12-05T19:18:48.158Z,-8.37
2022-12-05T19:21:25.741Z,-8.55
2022-12-05T19:23:54.221Z,-8.50
2022-12-05T19:26:24.016Z,-8.53
2022-12-05T19:28:51.335Z,-8.55
2022-12-05T19:31:21.568Z,-8.50
2022-12-05T19:33:54.591Z,-8.49
2022-12-05T19:36:35.663Z,-8.47
2022-12-05T19:39:09.320Z,-8.52
2022-12-05T19:41:36.716Z,-8.42
2022-12-05T19:44:04.225Z,-8.47
2022-12-05T19:46:33.298Z,-8.62
2022-12-05T19:49:03.863Z,-8.68
2022-12-05T19:51:34.081Z,-8.69
2022-12-05T19:54:04.014Z,-8.67
2022-12-05T19:56:34.387Z,-8.75
2022-12-05T19:59:10.054Z,-8.79
2022-12-05T20:01:40.834Z,-8.77
2022-12-05T20:04:11.198Z,-8.77
2022-12-05T20:07:02.232Z,-8.63
2022-12-05T20:09:29.827Z,-8.75
2022-12-05T20:12:04.182Z,-8.72
2022-12-05T20:14:41.299Z,-8.65
2022-12-05T20:17:12.923Z,-8.72
2022-12-05T20:19:40.050Z,-8.69
2022-12-05T20:22:07.472Z,-8.65
2022-12-05T20:24:43.615Z,-8.79
2022-12-05T20:27:11.106Z,-8.75
2022-12-05T20:29:47.971Z,-8.76
2022-12-05T20:32:18.316Z,-8.83
2022-12-05T20:34:55.839Z,-8.64
2022-12-05T20:37:25.222Z,-8.60
2022-12-05T20:39:56.217Z,-8.66
2022-12-05T20:42:26.129Z,-8.61
2022-12-05T20:44:53.436Z,-8.64
2022-12-05T20:47:20.543Z,-8.55
2022-12-05T20:49:47.736Z,-8.57
2022-12-05T20:52:14.942Z,-8.59
2022-12-05T20:54:45.245Z,-8.58
2022-12-05T20:57:13.280Z,-8.59
2022-12-05T20:59:43.084Z,-8.62
2022-12-05T21:02:10.561Z,-8.61
2022-12-05T21:04:40.978Z,-8.60
2022-12-05T21:07:08.021Z,-8.54
2022-12-05T21:09:38.746Z,-8.60
2022-12-05T21:12:11.646Z,-8.51
2022-12-05T21:14:39.610Z,-8.51
2022-12-05T21:17:13.898Z,-8.52
2022-12-05T21:19:40.965Z,-8.50
2022-12-05T21:22:10.002Z,-8.56
2022-12-05T21:24:40.074Z,-8.56
2022-12-05T21:27:07.420Z,-8.60
2022-12-05T21:29:34.875Z,-8.52
2022-12-05T21:32:01.898Z,-8.51
2022-12-05T21:34:28.864Z,-8.50
2022-12-05T21:36:55.896Z,-8.48
2022-12-05T21:39:22.818Z,-8.47
2022-12-05T21:41:50.927Z,-8.49
2022-12-05T21:44:20.075Z,-8.49
2022-12-05T21:46:47.158Z,-8.50
2022-12-05T21:49:14.345Z,-8.54
2022-12-05T21:51:41.317Z,-8.57
2022-12-05T21:54:08.345Z,-8.54
2022-12-05T21:56:35.245Z,-8.57
2022-12-05T21:59:02.213Z,-8.58
2022-12-05T22:01:29.327Z,-8.55
2022-12-05T22:04:01.544Z,-8.59
2022-12-05T22:06:35.212Z,-8.60
2022-12-05T22:09:02.554Z,-8.60
2022-12-05T22:11:30.127Z,-8.66
2022-12-05T22:13:57.202Z,-8.68
2022-12-05T22:16:30.662Z,-8.70
2022-12-05T22:18:59.252Z,-8.73
2022-12-05T22:21:28.026Z,-8.72
2022-12-05T22:23:55.224Z,-8.77
2022-12-05T22:26:24.610Z,-8.77
2022-12-05T22:28:53.259Z,-8.78
2022-12-05T22:31:21.052Z,-8.80
2022-12-05T22:33:48.879Z,-8.82
2022-12-05T22:36:17.742Z,-8.81
2022-12-05T22:38:47.446Z,-8.83
2022-12-05T22:41:20.277Z,-8.84
2022-12-05T22:43:48.844Z,-8.79
2022-12-05T22:46:18.449Z,-8.78
2022-12-05T22:48:47.092Z,-8.75
2022-12-05T22:51:15.517Z,-8.76
2022-12-05T22:53:42.616Z,-8.72
2022-12-05T22:56:15.889Z,-8.69
2022-12-05T22:58:43.995Z,-8.70
2022-12-05T23:01:19.895Z,-8.69
2022-12-05T23:03:48.619Z,-8.68
2022-12-05T23:06:18.186Z,-8.66
2022-12-05T23:08:48.041Z,-8.68
2022-12-05T23:11:16.664Z,-8.66
2022-12-05T23:13:44.679Z,-8.66
2022-12-05T23:16:15.022Z,-8.64
2022-12-05T23:18:49.309Z,-8.63
2022-12-05T23:21:25.452Z,-8.65
2022-12-05T23:23:55.817Z,-8.61
2022-12-05T23:26:24.937Z,-8.62
2022-12-05T23:28:52.478Z,-8.64
2022-12-05T23:31:19.732Z,-8.66
2022-12-05T23:33:50.723Z,-8.63
2022-12-05T23:36:19.056Z,-8.63
2022-12-05T23:38:47.074Z,-8.61
2022-12-05T23:41:17.770Z,-8.59
2022-12-05T23:43:45.445Z,-8.70
2022-12-05T23:46:15.417Z,-8.60
2022-12-05T23:48:45.968Z,-8.61
2022-12-05T23:51:18.178Z,-8.59
2022-12-05T23:53:47.453Z,-8.59
2022-12-05T23:56:18.331Z,-8.60
2022-12-05T23:58:45.815Z,-8.64
